»·PEaware :: N5939V KVNY-KMRY

N5939V :: KVNY-KMRY

FLIGHT INFORMATION

Flight Status: Arrived
Operator: Privately registered:
United States
More flights under this callsign
Pilot: Anonymous 30260 (30260)
Aircraft: SOCATA TBM-900
(TBM9)
More flights by this aircraft type
Origin: KVNY Van Nuys
United States
Destination: KMRY Monterey Peninsula
United States
More flights between these airports :: More routes between these airports
Route: CANOG3 COREZ MAKRS WIGGL
File this flight plan on PilotEdge
Remarks:
Altitude:
(Current/Filed)
22,000ft
Speed:
(Current/Filed)
306kts
Departed: 20-Sep-20 05:22 PM
Arrived: 20-Sep-20 06:17 PM
Distance/Time
Traveled:
218nm/0:54
Distance/Time
To Go:
Arrived

Flight Plot

Page will automatically refresh every two minutes.

Flight plan parsing failed; only flown route is shown


Map Options




Map Legend


Flown Route
Filed Route
Departure Airport
Arrival Airport
Navaid (VOR, NDB)
Fix

Horizontal Profiles

Position Reports

Time Latitude Longitude Heading Altitude Ground
Speed
20-Sep-20 17:07 34.202946 -118.491325 354 805ft 0kts
20-Sep-20 17:07 34.202946 -118.491325 354 805ft 0kts
20-Sep-20 17:08 34.202946 -118.491325 354 805ft 0kts
20-Sep-20 17:10 34.202946 -118.491325 354 805ft 0kts
20-Sep-20 17:10 34.202946 -118.491325 354 805ft 0kts
20-Sep-20 17:11 34.202946 -118.491325 354 805ft 0kts
20-Sep-20 17:12 34.202946 -118.491325 354 805ft 0kts
20-Sep-20 17:13 34.202946 -118.491325 354 805ft 0kts
20-Sep-20 17:14 34.202946 -118.491325 354 805ft 0kts
20-Sep-20 17:15 34.202946 -118.491325 354 805ft 0kts
20-Sep-20 17:16 34.203658 -118.490961 354 805ft 11kts
20-Sep-20 17:17 34.206934 -118.491271 355 805ft 14kts
20-Sep-20 17:18 34.210076 -118.491430 44 805ft 0kts
20-Sep-20 17:19 34.210103 -118.491398 45 805ft 0kts
20-Sep-20 17:20 34.209990 -118.490447 148 805ft 12kts
20-Sep-20 17:21 34.188479 -118.488808 175 1566ft 109kts
20-Sep-20 17:22 34.162274 -118.513829 226 3490ft 131kts
20-Sep-20 17:23 34.128917 -118.557475 225 4030ft 211kts
20-Sep-20 17:24 34.156441 -118.599637 351 5561ft 200kts
20-Sep-20 17:25 34.212518 -118.608624 351 7127ft 206kts
20-Sep-20 17:26 34.267510 -118.629382 338 8593ft 210kts
20-Sep-20 17:27 34.323231 -118.653295 338 10125ft 214kts
20-Sep-20 17:28 34.379510 -118.677514 338 11786ft 210kts
20-Sep-20 17:29 34.432141 -118.700168 337 13719ft 202kts
20-Sep-20 17:30 34.486173 -118.723476 336 15521ft 209kts
20-Sep-20 17:31 34.541534 -118.747406 334 17191ft 216kts
20-Sep-20 17:32 34.598462 -118.772040 333 18919ft 220kts
20-Sep-20 17:33 34.656691 -118.797275 332 20655ft 224kts
20-Sep-20 17:34 34.716149 -118.823136 331 22102ft 240kts
20-Sep-20 17:35 34.786790 -118.853911 333 22102ft 290kts
20-Sep-20 17:36 34.856613 -118.904444 318 22101ft 299kts
20-Sep-20 17:37 34.926586 -118.961847 319 22113ft 304kts
20-Sep-20 17:38 34.996646 -119.019721 321 22111ft 305kts
20-Sep-20 17:39 35.067322 -119.077610 323 22067ft 305kts
20-Sep-20 17:40 35.137862 -119.135743 323 21965ft 305kts
20-Sep-20 17:41 35.208216 -119.193911 323 21908ft 304kts
20-Sep-20 17:42 35.278213 -119.251919 323 21907ft 303kts
20-Sep-20 17:43 35.347825 -119.309719 323 21907ft 302kts
20-Sep-20 17:44 35.417457 -119.367667 323 21907ft 302kts
20-Sep-20 17:45 35.487465 -119.426053 323 21907ft 302kts
20-Sep-20 17:46 35.551811 -119.492340 298 21905ft 296kts
20-Sep-20 17:47 35.572291 -119.588722 279 21907ft 292kts
20-Sep-20 17:48 35.587077 -119.687388 278 21909ft 293kts
20-Sep-20 17:49 35.601799 -119.786729 278 21909ft 293kts
20-Sep-20 17:50 35.616877 -119.889139 278 21908ft 293kts
20-Sep-20 17:51 35.631633 -119.989948 278 21908ft 292kts
20-Sep-20 17:52 35.645996 -120.088677 278 21908ft 292kts
20-Sep-20 17:53 35.660205 -120.186961 278 21908ft 292kts
20-Sep-20 17:54 35.674388 -120.285608 278 21908ft 292kts
20-Sep-20 17:55 35.706800 -120.375917 308 21911ft 298kts
20-Sep-20 17:56 35.762246 -120.452140 309 21907ft 299kts
20-Sep-20 17:57 35.818146 -120.528302 309 21907ft 299kts
20-Sep-20 17:58 35.874144 -120.604284 310 21907ft 299kts
20-Sep-20 17:59 35.929737 -120.680857 309 21910ft 299kts
20-Sep-20 18:00 35.985466 -120.757325 309 21910ft 299kts
20-Sep-20 18:01 36.040928 -120.833585 309 21910ft 299kts
20-Sep-20 18:02 36.097793 -120.911974 309 21085ft 321kts
20-Sep-20 18:03 36.158442 -120.995758 309 19598ft 330kts
20-Sep-20 18:04 36.220983 -121.082388 310 17257ft 326kts
20-Sep-20 18:05 36.279200 -121.163240 311 14686ft 304kts
20-Sep-20 18:06 36.334016 -121.239490 312 12101ft 290kts
20-Sep-20 18:07 36.386539 -121.312750 312 9999ft 276kts
20-Sep-20 18:08 36.430459 -121.387093 293 9993ft 261kts
20-Sep-20 18:09 36.460776 -121.475235 294 10000ft 258kts
20-Sep-20 18:10 36.492635 -121.565846 296 8443ft 253kts
20-Sep-20 18:11 36.520714 -121.648125 293 6081ft 196kts
20-Sep-20 18:12 36.540945 -121.708707 292 4052ft 142kts
20-Sep-20 18:13 36.556225 -121.753249 290 1886ft 115kts
20-Sep-20 18:14 36.568243 -121.789049 292 1316ft 96kts
20-Sep-20 18:15 36.578781 -121.819936 291 645ft 98kts
20-Sep-20 18:16 36.586710 -121.843561 293 205ft 30kts
20-Sep-20 18:17 36.586762 -121.846152 284 193ft 7kts
20-Sep-20 18:18 36.588513 -121.851580 264 172ft 9kts
20-Sep-20 18:19 36.588434 -121.852834 290 171ft 0kts

Navigation Log

Ident Type
Flight plan parsing failed, navigation log unavailable